x

South Santa Rosa Is. Ca (46069) Wave Buoy

3:50 - Tue 2nd Jun 2015 All times are PDT. -7 hours from GMT.

  • Sig Wave height 4.6ft
  • Peak Period 11s
  • Average Period 5s
  • Wind
    22mph, 27mph gusts
  • Sea Temp 61°f
  • Luft Temp 59°f
  • Sea Pressure 1015.1mb
  • South Santa Rosa Is. Ca
  • South Santa Rosa Is. Ca

More Historic Weather Station data

Upgrade to MSW Pro to gain access to the past 30 days of data for over 8000 Wavebouys and Weather Stations around the globe.

Join Pro

Comparision Forecast

View Surf forecast
   
Di 06/02 3:50 4.5ft 11s 5s 22 27 mph 1015.1mb 61f 59f
2:50 5ft 12s 5s 25 29 mph 1015mb 61f 58f
1:50 4.5ft 12s 5s 22 27 mph 1015.3mb 61f 58f
12:50 4ft 12s 4s 25 29 mph 1015.5mb 61f 59f
Mo 06/01 11:50 4.5ft 12s 5s 20 25 mph 1015.9mb 61f 60f
10:50 4ft 12s 5s 20 25 mph 1016.1mb 61f 60f
9:50 3.5ft 12s 5s 20 22 mph 1015.9mb 61f 60f
8:50 4.5ft 13s 6s 18 22 mph 1015.7mb 61f 60f
7:50 4.5ft 11s 6s 16 20 mph 1015.5mb 61f 60f
6:50 4.5ft 13s 6s 18 20 mph 1015.5mb 61f 60f
5:50 4ft 12s 6s 16 20 mph 1015.6mb 61f 60f
4:50 4ft 11s 6s 18 20 mph 1015.9mb 61f 60f
3:50 4.5ft 13s 6s 18 20 mph 1016.2mb 61f 60f
2:50 4.5ft 13s 5s 16 18 mph 1016.6mb 61f 60f
1:50 4.5ft 12s 6s 18 20 mph 1016.8mb 61f 59f
12:50 4.5ft 12s 6s 18 22 mph 1016.9mb 61f 58f
11:50 4ft 13s 5s 18 20 mph 1016.8mb 61f 58f
10:50 3.5ft 14s 6s 18 20 mph 1016.7mb 61f 58f
9:50 4.5ft 14s 6s 11 13 mph 1016.3mb 61f 57f
8:50 4.5ft 13s 6s 13 16 mph 1016.1mb 60f 57f
7:50 5ft 12s 5s 16 20 mph 1015.5mb 60f 57f
6:50 4.5ft 13s 5s 18 20 mph 1015.1mb 60f 57f
5:50 4.5ft 12s 5s 20 25 mph 1014.6mb 60f 56f
4:50 4.5ft 12s 5s 18 22 mph 1014.4mb 60f 56f
3:50 4.5ft 14s 5s 20 22 mph 1014.3mb 60f 56f
2:50 4.5ft 15s 5s 20 25 mph 1014.4mb 60f 57f
1:50 4.5ft 13s 5s 20 25 mph 1014.4mb 60f 57f
12:50 4ft 5s 5s 18 22 mph 1014.4mb 60f 57f
So 05/31 11:50 4.5ft 13s 5s 20 25 mph 1014.4mb 60f 57f
10:50 4.5ft 4s 4s 20 25 mph 1014.4mb 60f 57f
9:50 4ft 16s 5s 20 25 mph 1014.1mb 60f 57f
8:50 3.5ft 13s 4s 20 22 mph 1013.7mb 60f 57f
7:50 3.5ft 15s 5s 18 22 mph 1013.4mb 60f 57f
6:50 3.5ft 15s 5s 18 20 mph 1013.2mb 60f 57f
5:50 3.5ft 14s 5s 18 20 mph 1013.2mb 60f 57f
4:50 3ft 14s 5s 16 20 mph 1013.4mb 60f 57f
3:50 3.5ft 16s 7s 18 20 mph 1013.9mb 60f 57f
2:50 3.5ft 14s 7s 13 16 mph 1014.5mb 60f 56f
1:50 3.5ft 16s 6s 11 13 mph 1014.8mb 60f 56f
12:50 3.5ft 16s 6s 11 13 mph 1015.2mb 60f 56f
11:50 3.5ft 14s 6s 13 18 mph 1015.3mb 60f 55f
10:50 3.5ft 13s 5s 11 13 mph 1014.9mb 60f 55f
9:50 3.5ft 14s 5s 11 13 mph 1014.6mb 59f 55f
8:50 3.5ft 14s 5s 11 16 mph 1014.1mb 60f 55f
7:50 3.5ft 11s 5s 13 18 mph 1013.7mb 60f 55f
6:50 4ft 16s 5s 13 18 mph 1013.3mb 60f 54f
5:50 3.5ft 14s 5s 13 18 mph 1012.9mb 60f 55f
4:50 3.5ft 11s 5s 13 18 mph 1012.7mb 60f 54f
3:50 4ft 14s 5s 13 16 mph 1012.8mb 60f 54f
2:50 4.5ft 16s 6s 16 18 mph 1012.7mb 60f 54f
1:50 4.5ft 13s 5s 16 18 mph 1013.1mb 60f 55f
12:50 4.5ft 13s 5s 16 20 mph 1013.2mb 60f 55f
Sa 05/30 11:50 4.5ft 14s 5s 18 22 mph 1012.8mb 60f 55f
10:50 4.5ft 14s 5s 18 20 mph 1012.9mb 60f 55f
9:50 4ft 12s 5s 18 22 mph 1012.4mb 60f 56f
8:50 4ft 15s 5s 18 20 mph 1011.8mb 60f 56f
7:50 4ft 16s 5s 16 18 mph 1011.4mb 60f 55f
6:50 4ft 14s 5s 16 18 mph 1011.7mb 60f 55f
5:50 3.5ft 12s 6s 16 18 mph 1012mb 60f 56f
4:50 4ft 15s 6s 16 18 mph 1012.8mb 60f 56f
3:50 4.5ft 13s 6s 11 16 mph 1013.5mb 60f 56f
2:50 4.5ft 14s 7s 9 11 mph 1014.4mb 60f 56f
1:50 4ft 14s 7s 9 11 mph 1014.8mb 60f 56f
12:50 4.5ft 11s 6s 4 7 mph 1014.5mb 60f 56f
11:50 4.5ft 14s 6s 9 11 mph 1014.7mb 60f 55f
10:50 4.5ft 13s 6s 9 13 mph 1014.7mb 60f 55f
9:50 5ft 15s 6s 11 13 mph 1014.3mb 60f 55f
8:50 4.5ft 7s 5s 11 16 mph 1014.2mb 60f 56f
7:50 4.5ft 12s 5s 18 20 mph 1013.9mb 60f 55f
6:50 5ft 13s 5s 18 20 mph 1013.6mb 60f 55f
5:50 5ft 13s 6s 16 20 mph 1013mb 60f 55f
4:50 5ft 14s 6s 13 18 mph 1012.1mb 60f 54f
3:50 5ft 15s 6s 16 18 mph 1012mb 60f 54f
2:50 5ft 14s 6s 16 20 mph 1012.2mb 60f 55f
1:50 5ft 12s 5s 16 20 mph 1012.3mb 60f 55f
12:50 6ft 6s 5s 18 22 mph 1012.7mb 60f 55f
Fr 05/29 11:50 6ft 7s 5s 22 27 mph 1012.5mb 60f 55f
10:50 5.5ft 5s 5s 22 27 mph 1012.6mb 60f 55f
8:50 5ft 13s 5s 22 27 mph 1012.3mb 60f 56f
7:50 5.5ft 13s 5s 20 25 mph 1012.4mb 60f 56f
6:50 5ft 12s 5s 20 25 mph 1012.1mb 60f 57f
5:50 5ft 7s 5s 20 22 mph 1012.8mb 60f 57f
4:50 5ft 13s 6s 18 22 mph 1013.2mb 60f 57f
3:50 5ft 12s 6s 18 20 mph 1013.4mb 60f 56f
2:50 6ft 15s 7s 16 18 mph 1013.7mb 60f 56f
1:50 5.5ft 13s 6s 18 20 mph 1014.2mb 60f 55f
12:50 5ft 12s 6s 18 20 mph 1014.5mb 60f 55f